sensor_id;sensor_type;location;lat;lon;timestamp;pressure;altitude;pressure_sealevel;temperature
19568;BMP280;9930;49.240;8.548;2023-05-10T00:00:40;99854.06;;;20.31
19568;BMP280;9930;49.240;8.548;2023-05-10T00:03:05;99856.66;;;20.31
19568;BMP280;9930;49.240;8.548;2023-05-10T00:05:32;99848.97;;;20.23
19568;BMP280;9930;49.240;8.548;2023-05-10T00:08:20;99855.81;;;20.29
19568;BMP280;9930;49.240;8.548;2023-05-10T00:10:48;99861.88;;;20.28
19568;BMP280;9930;49.240;8.548;2023-05-10T00:13:15;99863.59;;;20.27
19568;BMP280;9930;49.240;8.548;2023-05-10T00:15:40;99851.56;;;20.22
19568;BMP280;9930;49.240;8.548;2023-05-10T00:18:06;99849.84;;;20.22
19568;BMP280;9930;49.240;8.548;2023-05-10T00:20:32;99858.44;;;20.24
19568;BMP280;9930;49.240;8.548;2023-05-10T00:22:58;99850.69;;;20.23
19568;BMP280;9930;49.240;8.548;2023-05-10T00:25:24;99846.44;;;20.17
19568;BMP280;9930;49.240;8.548;2023-05-10T00:27:55;99851.59;;;20.20
19568;BMP280;9930;49.240;8.548;2023-05-10T00:30:22;99838.72;;;20.13
19568;BMP280;9930;49.240;8.548;2023-05-10T00:32:50;99840.44;;;20.12
19568;BMP280;9930;49.240;8.548;2023-05-10T00:35:17;99847.41;;;20.09
19568;BMP280;9930;49.240;8.548;2023-05-10T00:37:42;99845.72;;;20.03
19568;BMP280;9930;49.240;8.548;2023-05-10T00:40:14;99864.66;;;20.08
19568;BMP280;9930;49.240;8.548;2023-05-10T00:42:41;99857.81;;;20.01
19568;BMP280;9930;49.240;8.548;2023-05-10T00:45:11;99858.72;;;19.98
19568;BMP280;9930;49.240;8.548;2023-05-10T00:47:37;99857.88;;;19.95
19568;BMP280;9930;49.240;8.548;2023-05-10T00:50:04;99863.88;;;20.00
19568;BMP280;9930;49.240;8.548;2023-05-10T00:52:31;99851.88;;;19.91
19568;BMP280;9930;49.240;8.548;2023-05-10T00:54:59;99859.63;;;19.94
19568;BMP280;9930;49.240;8.548;2023-05-10T00:57:25;99869.97;;;19.93
19568;BMP280;9930;49.240;8.548;2023-05-10T00:59:53;99855.38;;;19.87
19568;BMP280;9930;49.240;8.548;2023-05-10T01:02:19;99866.56;;;19.89
19568;BMP280;9930;49.240;8.548;2023-05-10T01:04:45;99866.59;;;19.86
19568;BMP280;9930;49.240;8.548;2023-05-10T01:07:12;99864.88;;;19.84
19568;BMP280;9930;49.240;8.548;2023-05-10T01:09:41;99867.50;;;19.82
19568;BMP280;9930;49.240;8.548;2023-05-10T01:12:07;99858.91;;;19.77
19568;BMP280;9930;49.240;8.548;2023-05-10T01:14:34;99862.34;;;19.79
19568;BMP280;9930;49.240;8.548;2023-05-10T01:17:03;99870.97;;;19.78
19568;BMP280;9930;49.240;8.548;2023-05-10T01:19:35;99875.31;;;19.76
19568;BMP280;9930;49.240;8.548;2023-05-10T01:22:19;99871.88;;;19.74
19568;BMP280;9930;49.240;8.548;2023-05-10T01:31:07;99869.38;;;19.63
19568;BMP280;9930;49.240;8.548;2023-05-10T01:34:16;99865.97;;;19.55
19568;BMP280;9930;49.240;8.548;2023-05-10T01:37:02;99873.72;;;19.58
19568;BMP280;9930;49.240;8.548;2023-05-10T01:39:46;99861.66;;;19.51
19568;BMP280;9930;49.240;8.548;2023-05-10T01:42:21;99876.31;;;19.57
19568;BMP280;9930;49.240;8.548;2023-05-10T01:45:26;99875.50;;;19.53
19568;BMP280;9930;49.240;8.548;2023-05-10T01:48:10;99877.22;;;19.53
19568;BMP280;9930;49.240;8.548;2023-05-10T01:50:41;99868.59;;;19.46
19568;BMP280;9930;49.240;8.548;2023-05-10T01:53:12;99879.78;;;19.50
19568;BMP280;9930;49.240;8.548;2023-05-10T01:55:51;99878.94;;;19.49
19568;BMP280;9930;49.240;8.548;2023-05-10T01:58:30;99884.09;;;19.49
19568;BMP280;9930;49.240;8.548;2023-05-10T02:01:04;99871.22;;;19.41
19568;BMP280;9930;49.240;8.548;2023-05-10T02:03:36;99888.44;;;19.47
19568;BMP280;9930;49.240;8.548;2023-05-10T02:06:04;99879.00;;;19.38
19568;BMP280;9930;49.240;8.548;2023-05-10T02:08:32;99898.81;;;19.42
19568;BMP280;9930;49.240;8.548;2023-05-10T02:11:01;99882.50;;;19.33
19568;BMP280;9930;49.240;8.548;2023-05-10T02:13:29;99882.50;;;19.30
19568;BMP280;9930;49.240;8.548;2023-05-10T02:15:57;99904.91;;;19.34
19568;BMP280;9930;49.240;8.548;2023-05-10T02:18:25;99890.28;;;19.27
19568;BMP280;9930;49.240;8.548;2023-05-10T02:20:53;99902.34;;;19.29
19568;BMP280;9930;49.240;8.548;2023-05-10T02:23:25;99903.19;;;19.28
19568;BMP280;9930;49.240;8.548;2023-05-10T02:25:53;99904.91;;;19.29
19568;BMP280;9930;49.240;8.548;2023-05-10T02:28:23;99910.09;;;19.31
19568;BMP280;9930;49.240;8.548;2023-05-10T02:30:51;99910.09;;;19.29
19568;BMP280;9930;49.240;8.548;2023-05-10T02:33:23;99898.06;;;19.25
19568;BMP280;9930;49.240;8.548;2023-05-10T02:35:55;99905.78;;;19.30
19568;BMP280;9930;49.240;8.548;2023-05-10T02:38:25;99897.16;;;19.31
19568;BMP280;9930;49.240;8.548;2023-05-10T02:40:55;99892.88;;;19.25
19568;BMP280;9930;49.240;8.548;2023-05-10T02:43:23;99904.91;;;19.32
19568;BMP280;9930;49.240;8.548;2023-05-10T02:45:51;99904.91;;;19.32
19568;BMP280;9930;49.240;8.548;2023-05-10T02:48:17;99906.63;;;19.32
19568;BMP280;9930;49.240;8.548;2023-05-10T02:50:50;99916.09;;;19.33
19568;BMP280;9930;49.240;8.548;2023-05-10T02:53:23;99910.94;;;19.31
19568;BMP280;9930;49.240;8.548;2023-05-10T02:55:57;99913.53;;;19.31
19568;BMP280;9930;49.240;8.548;2023-05-10T02:58:26;99905.78;;;19.28
19568;BMP280;9930;49.240;8.548;2023-05-10T03:00:56;99910.09;;;19.29
19568;BMP280;9930;49.240;8.548;2023-05-10T03:03:27;99905.78;;;19.28
19568;BMP280;9930;49.240;8.548;2023-05-10T03:05:52;99921.25;;;19.34
19568;BMP280;9930;49.240;8.548;2023-05-10T03:08:22;99910.09;;;19.31
19568;BMP280;9930;49.240;8.548;2023-05-10T03:11:16;99903.22;;;19.24
19568;BMP280;9930;49.240;8.548;2023-05-10T03:13:48;99917.00;;;19.29
19568;BMP280;9930;49.240;8.548;2023-05-10T03:16:34;99912.69;;;19.26
19568;BMP280;9930;49.240;8.548;2023-05-10T03:19:30;99915.31;;;19.23
19568;BMP280;9930;49.240;8.548;2023-05-10T03:22:10;99915.31;;;19.22
19568;BMP280;9930;49.240;8.548;2023-05-10T03:24:39;99911.91;;;19.14
19568;BMP280;9930;49.240;8.548;2023-05-10T03:27:09;99911.91;;;19.12
19568;BMP280;9930;49.240;8.548;2023-05-10T03:29:37;99928.25;;;19.16
19568;BMP280;9930;49.240;8.548;2023-05-10T03:32:03;99924.84;;;19.14
19568;BMP280;9930;49.240;8.548;2023-05-10T03:34:32;99929.13;;;19.13
19568;BMP280;9930;49.240;8.548;2023-05-10T03:37:03;99924.84;;;19.11
19568;BMP280;9930;49.240;8.548;2023-05-10T03:39:31;99924.84;;;19.07
19568;BMP280;9930;49.240;8.548;2023-05-10T03:42:00;99929.19;;;19.04
19568;BMP280;9930;49.240;8.548;2023-05-10T03:44:30;99926.63;;;18.96
19568;BMP280;9930;49.240;8.548;2023-05-10T03:46:56;99922.34;;;18.95
19568;BMP280;9930;49.240;8.548;2023-05-10T03:49:22;99931.81;;;18.96
19568;BMP280;9930;49.240;8.548;2023-05-10T03:51:48;99931.81;;;18.90
19568;BMP280;9930;49.240;8.548;2023-05-10T03:54:14;99940.44;;;18.92
19568;BMP280;9930;49.240;8.548;2023-05-10T03:56:43;99947.31;;;18.90
19568;BMP280;9930;49.240;8.548;2023-05-10T03:59:11;99944.78;;;18.84
19568;BMP280;9930;49.240;8.548;2023-05-10T04:01:37;99945.63;;;18.83
19568;BMP280;9930;49.240;8.548;2023-05-10T04:04:04;99958.53;;;18.89
19568;BMP280;9930;49.240;8.548;2023-05-10T04:06:30;99957.66;;;18.89
19568;BMP280;9930;49.240;8.548;2023-05-10T04:08:59;99953.38;;;18.89
19568;BMP280;9930;49.240;8.548;2023-05-10T04:11:30;99949.94;;;18.84
19568;BMP280;9930;49.240;8.548;2023-05-10T04:13:56;99961.09;;;18.91
19568;BMP280;9930;49.240;8.548;2023-05-10T04:16:27;99950.78;;;18.86
19568;BMP280;9930;49.240;8.548;2023-05-10T04:18:52;99966.28;;;18.89
19568;BMP280;9930;49.240;8.548;2023-05-10T04:21:20;99961.97;;;18.93
19568;BMP280;9930;49.240;8.548;2023-05-10T04:23:46;99954.22;;;18.87
19568;BMP280;9930;49.240;8.548;2023-05-10T04:26:15;99965.41;;;18.95
19568;BMP280;9930;49.240;8.548;2023-05-10T04:28:42;99967.97;;;18.96
19568;BMP280;9930;49.240;8.548;2023-05-10T04:31:10;99967.97;;;18.98
19568;BMP280;9930;49.240;8.548;2023-05-10T04:33:43;99965.38;;;18.98
19568;BMP280;9930;49.240;8.548;2023-05-10T04:36:10;99956.78;;;18.94
19568;BMP280;9930;49.240;8.548;2023-05-10T04:38:35;99965.38;;;19.02
19568;BMP280;9930;49.240;8.548;2023-05-10T04:41:09;99961.06;;;19.01
19568;BMP280;9930;49.240;8.548;2023-05-10T04:43:36;99950.75;;;18.98
19568;BMP280;9930;49.240;8.548;2023-05-10T04:46:03;99964.50;;;19.08
19568;BMP280;9930;49.240;8.548;2023-05-10T04:48:33;99955.03;;;19.02
19568;BMP280;9930;49.240;8.548;2023-05-10T04:50:59;99965.34;;;19.10
19568;BMP280;9930;49.240;8.548;2023-05-10T04:53:29;99962.75;;;19.08
19568;BMP280;9930;49.240;8.548;2023-05-10T04:55:57;99961.06;;;19.06
19568;BMP280;9930;49.240;8.548;2023-05-10T04:58:23;99961.91;;;19.09
19568;BMP280;9930;49.240;8.548;2023-05-10T05:00:49;99967.03;;;19.14
19568;BMP280;9930;49.240;8.548;2023-05-10T05:03:17;99970.47;;;19.16
19568;BMP280;9930;49.240;8.548;2023-05-10T05:05:46;99955.84;;;19.12
19568;BMP280;9930;49.240;8.548;2023-05-10T05:08:13;99965.31;;;19.19
19568;BMP280;9930;49.240;8.548;2023-05-10T05:10:42;99973.03;;;19.22
19568;BMP280;9930;49.240;8.548;2023-05-10T05:13:12;99977.34;;;19.23
19568;BMP280;9930;49.240;8.548;2023-05-10T05:15:38;99967.88;;;19.19
19568;BMP280;9930;49.240;8.548;2023-05-10T05:18:05;99968.72;;;19.26
19568;BMP280;9930;49.240;8.548;2023-05-10T05:20:33;99963.53;;;19.27
19568;BMP280;9930;49.240;8.548;2023-05-10T05:23:03;99952.34;;;19.27
19568;BMP280;9930;49.240;8.548;2023-05-10T05:25:29;99969.53;;;19.34
19568;BMP280;9930;49.240;8.548;2023-05-10T05:27:55;99964.38;;;19.35
19568;BMP280;9930;49.240;8.548;2023-05-10T05:30:23;99975.53;;;19.39
19568;BMP280;9930;49.240;8.548;2023-05-10T05:32:51;99966.94;;;19.37
19568;BMP280;9930;49.240;8.548;2023-05-10T05:35:17;99987.59;;;19.45
19568;BMP280;9930;49.240;8.548;2023-05-10T05:37:43;99993.59;;;19.50
19568;BMP280;9930;49.240;8.548;2023-05-10T05:40:16;99988.44;;;19.48
19568;BMP280;9930;49.240;8.548;2023-05-10T05:42:42;99985.84;;;19.54
19568;BMP280;9930;49.240;8.548;2023-05-10T05:45:13;99997.03;;;19.59
19568;BMP280;9930;49.240;8.548;2023-05-10T05:47:45;99984.94;;;19.58
19568;BMP280;9930;49.240;8.548;2023-05-10T05:50:11;99994.41;;;19.65
19568;BMP280;9930;49.240;8.548;2023-05-10T05:52:36;99991.81;;;19.64
19568;BMP280;9930;49.240;8.548;2023-05-10T05:55:02;99996.13;;;19.66
19568;BMP280;9930;49.240;8.548;2023-05-10T05:57:31;100006.44;;;19.69
19568;BMP280;9930;49.240;8.548;2023-05-10T05:59:59;100000.41;;;19.69
19568;BMP280;9930;49.240;8.548;2023-05-10T06:02:32;100006.44;;;19.71
19568;BMP280;9930;49.240;8.548;2023-05-10T06:04:58;100001.31;;;19.65
19568;BMP280;9930;49.240;8.548;2023-05-10T06:07:23;100000.41;;;19.67
19568;BMP280;9930;49.240;8.548;2023-05-10T06:09:49;100015.03;;;19.75
19568;BMP280;9930;49.240;8.548;2023-05-10T06:12:15;100021.94;;;19.77
19568;BMP280;9930;49.240;8.548;2023-05-10T06:14:41;100013.31;;;19.77
19568;BMP280;9930;49.240;8.548;2023-05-10T06:17:07;100019.31;;;19.82
19568;BMP280;9930;49.240;8.548;2023-05-10T06:19:35;100014.16;;;19.79
19568;BMP280;9930;49.240;8.548;2023-05-10T06:22:03;100012.41;;;19.81
19568;BMP280;9930;49.240;8.548;2023-05-10T06:24:29;100031.38;;;19.86
19568;BMP280;9930;49.240;8.548;2023-05-10T06:26:57;100014.13;;;19.82
19568;BMP280;9930;49.240;8.548;2023-05-10T06:29:25;100029.63;;;19.88
19568;BMP280;9930;49.240;8.548;2023-05-10T06:31:51;100035.63;;;19.91
19568;BMP280;9930;49.240;8.548;2023-05-10T06:34:17;100024.44;;;19.89
19568;BMP280;9930;49.240;8.548;2023-05-10T06:36:42;100038.19;;;19.99
19568;BMP280;9930;49.240;8.548;2023-05-10T06:39:11;100035.56;;;20.03
19568;BMP280;9930;49.240;8.548;2023-05-10T06:41:37;100047.59;;;20.09
19568;BMP280;9930;49.240;8.548;2023-05-10T06:44:03;100045.84;;;20.14
19568;BMP280;9930;49.240;8.548;2023-05-10T06:46:31;100050.97;;;20.20
19568;BMP280;9930;49.240;8.548;2023-05-10T06:48:57;100044.06;;;20.19
19568;BMP280;9930;49.240;8.548;2023-05-10T06:51:22;100056.09;;;20.28
19568;BMP280;9930;49.240;8.548;2023-05-10T06:53:50;100059.53;;;20.31
19568;BMP280;9930;49.240;8.548;2023-05-10T06:56:16;100062.97;;;20.33
19568;BMP280;9930;49.240;8.548;2023-05-10T06:58:42;100068.97;;;20.43
19568;BMP280;9930;49.240;8.548;2023-05-10T07:01:08;100054.25;;;20.45
19568;BMP280;9930;49.240;8.548;2023-05-10T07:03:33;100069.72;;;20.56
19568;BMP280;9930;49.240;8.548;2023-05-10T07:06:03;100061.88;;;20.63
19568;BMP280;9930;49.240;8.548;2023-05-10T07:08:39;100079.03;;;20.75
19568;BMP280;9930;49.240;8.548;2023-05-10T07:11:06;100064.41;;;20.69
19568;BMP280;9930;49.240;8.548;2023-05-10T07:13:38;100078.16;;;20.78
19568;BMP280;9930;49.240;8.548;2023-05-10T07:16:07;100069.44;;;20.82
19568;BMP280;9930;49.240;8.548;2023-05-10T07:18:33;100074.56;;;20.88
19568;BMP280;9930;49.240;8.548;2023-05-10T07:21:01;100073.63;;;20.96
19568;BMP280;9930;49.240;8.548;2023-05-10T07:23:27;100072.72;;;21.00
19568;BMP280;9930;49.240;8.548;2023-05-10T07:25:53;100081.25;;;21.10
19568;BMP280;9930;49.240;8.548;2023-05-10T07:28:19;100072.56;;;21.16
19568;BMP280;9930;49.240;8.548;2023-05-10T07:30:45;100057.91;;;21.12
19568;BMP280;9930;49.240;8.548;2023-05-10T07:33:14;100078.50;;;21.27
19568;BMP280;9930;49.240;8.548;2023-05-10T07:35:42;100078.44;;;21.33
19568;BMP280;9930;49.240;8.548;2023-05-10T07:38:08;100070.69;;;21.31
19568;BMP280;9930;49.240;8.548;2023-05-10T07:40:34;100080.94;;;21.42
19568;BMP280;9930;49.240;8.548;2023-05-10T07:43:02;100082.63;;;21.45
19568;BMP280;9930;49.240;8.548;2023-05-10T07:45:28;100082.59;;;21.48
19568;BMP280;9930;49.240;8.548;2023-05-10T07:47:58;100069.63;;;21.46
19568;BMP280;9930;49.240;8.548;2023-05-10T07:50:26;100082.50;;;21.55
19568;BMP280;9930;49.240;8.548;2023-05-10T07:52:57;100067.03;;;21.48
19568;BMP280;9930;49.240;8.548;2023-05-10T07:55:25;100069.63;;;21.46
19568;BMP280;9930;49.240;8.548;2023-05-10T07:57:56;100086.03;;;21.50
19568;BMP280;9930;49.240;8.548;2023-05-10T08:00:22;100090.34;;;21.51
19568;BMP280;9930;49.240;8.548;2023-05-10T08:02:47;100074.06;;;21.38
19568;BMP280;9930;49.240;8.548;2023-05-10T08:05:13;100081.69;;;21.50
19568;BMP280;9930;49.240;8.548;2023-05-10T08:07:41;100087.72;;;21.52
19568;BMP280;9930;49.240;8.548;2023-05-10T08:10:09;100085.16;;;21.51
19568;BMP280;9930;49.240;8.548;2023-05-10T08:12:38;100067.84;;;21.51
19568;BMP280;9930;49.240;8.548;2023-05-10T08:15:04;100080.66;;;21.63
19568;BMP280;9930;49.240;8.548;2023-05-10T08:17:30;100084.09;;;21.65
19568;BMP280;9930;49.240;8.548;2023-05-10T08:19:56;100088.31;;;21.74
19568;BMP280;9930;49.240;8.548;2023-05-10T08:22:22;100077.97;;;21.70
19568;BMP280;9930;49.240;8.548;2023-05-10T08:24:47;100093.44;;;21.79
19568;BMP280;9930;49.240;8.548;2023-05-10T08:27:15;100079.69;;;21.72
19568;BMP280;9930;49.240;8.548;2023-05-10T08:29:43;100096.91;;;21.78
19568;BMP280;9930;49.240;8.548;2023-05-10T08:32:13;100077.97;;;21.70
19568;BMP280;9930;49.240;8.548;2023-05-10T08:34:44;100091.78;;;21.73
19568;BMP280;9930;49.240;8.548;2023-05-10T08:37:12;100080.56;;;21.71
19568;BMP280;9930;49.240;8.548;2023-05-10T08:39:44;100101.19;;;21.82
19568;BMP280;9930;49.240;8.548;2023-05-10T08:42:21;100100.25;;;21.87
19568;BMP280;9930;49.240;8.548;2023-05-10T08:44:48;100091.56;;;21.88
19568;BMP280;9930;49.240;8.548;2023-05-10T08:47:17;100088.03;;;21.94
19568;BMP280;9930;49.240;8.548;2023-05-10T08:49:47;100099.13;;;22.08
19568;BMP280;9930;49.240;8.548;2023-05-10T08:52:19;100108.53;;;22.15
19568;BMP280;9930;49.240;8.548;2023-05-10T08:54:47;100101.53;;;22.20
19568;BMP280;9930;49.240;8.548;2023-05-10T08:57:13;100109.22;;;22.28
19568;BMP280;9930;49.240;8.548;2023-05-10T08:59:43;100107.38;;;22.36
19568;BMP280;9930;49.240;8.548;2023-05-10T09:02:15;100107.25;;;22.44
19568;BMP280;9930;49.240;8.548;2023-05-10T09:04:43;100117.41;;;22.57
19568;BMP280;9930;49.240;8.548;2023-05-10T09:07:11;100111.22;;;22.66
19568;BMP280;9930;49.240;8.548;2023-05-10T09:09:40;100102.53;;;22.67
19568;BMP280;9930;49.240;8.548;2023-05-10T09:12:10;100104.97;;;22.76
19568;BMP280;9930;49.240;8.548;2023-05-10T09:14:38;100103.25;;;22.75
19568;BMP280;9930;49.240;8.548;2023-05-10T09:17:06;100109.25;;;22.79
19568;BMP280;9930;49.240;8.548;2023-05-10T09:19:35;100108.38;;;22.81
19568;BMP280;9930;49.240;8.548;2023-05-10T09:22:03;100106.63;;;22.83
19568;BMP280;9930;49.240;8.548;2023-05-10T09:24:32;100114.28;;;22.91
19568;BMP280;9930;49.240;8.548;2023-05-10T09:26:58;100121.09;;;22.98
19568;BMP280;9930;49.240;8.548;2023-05-10T09:29:23;100123.63;;;23.03
19568;BMP280;9930;49.240;8.548;2023-05-10T09:31:52;100121.88;;;23.03
19568;BMP280;9930;49.240;8.548;2023-05-10T09:34:29;100128.81;;;23.03
19568;BMP280;9930;49.240;8.548;2023-05-10T09:37:00;100131.47;;;23.00
19568;BMP280;9930;49.240;8.548;2023-05-10T09:39:35;100134.06;;;23.00
19568;BMP280;9930;49.240;8.548;2023-05-10T09:42:09;100124.59;;;22.96
19568;BMP280;9930;49.240;8.548;2023-05-10T09:44:40;100134.03;;;23.03
19568;BMP280;9930;49.240;8.548;2023-05-10T09:47:17;100128.88;;;23.00
19568;BMP280;9930;49.240;8.548;2023-05-10T09:49:43;100141.69;;;23.10
19568;BMP280;9930;49.240;8.548;2023-05-10T09:52:10;100136.41;;;23.15
19568;BMP280;9930;49.240;8.548;2023-05-10T09:54:36;100137.16;;;23.21
19568;BMP280;9930;49.240;8.548;2023-05-10T09:57:02;100124.19;;;23.18
19568;BMP280;9930;49.240;8.548;2023-05-10T09:59:29;100114.50;;;23.26
19568;BMP280;9930;49.240;8.548;2023-05-10T10:01:59;100133.19;;;23.47
19568;BMP280;9930;49.240;8.548;2023-05-10T10:04:25;100137.38;;;23.55
19568;BMP280;9930;49.240;8.548;2023-05-10T10:07:03;100126.91;;;23.58
19568;BMP280;9930;49.240;8.548;2023-05-10T10:09:33;100133.63;;;23.70
19568;BMP280;9930;49.240;8.548;2023-05-10T10:12:00;100128.41;;;23.70
19568;BMP280;9930;49.240;8.548;2023-05-10T10:14:26;100131.75;;;23.77
19568;BMP280;9930;49.240;8.548;2023-05-10T10:16:52;100133.56;;;23.73
19568;BMP280;9930;49.240;8.548;2023-05-10T10:19:19;100137.91;;;23.73
19568;BMP280;9930;49.240;8.548;2023-05-10T10:21:49;100142.25;;;23.72
19568;BMP280;9930;49.240;8.548;2023-05-10T10:24:20;100143.19;;;23.70
19568;BMP280;9930;49.240;8.548;2023-05-10T10:26:47;100147.72;;;23.60
19568;BMP280;9930;49.240;8.548;2023-05-10T10:35:36;100155.09;;;23.35
19568;BMP280;9930;49.240;8.548;2023-05-10T10:38:04;100137.88;;;23.28
19568;BMP280;9930;49.240;8.548;2023-05-10T10:40:33;100153.31;;;23.39
19568;BMP280;9930;49.240;8.548;2023-05-10T10:43:24;100143.63;;;23.45
19568;BMP280;9930;49.240;8.548;2023-05-10T10:49:10;100146.91;;;23.56
19568;BMP280;9930;49.240;8.548;2023-05-10T10:52:25;100125.25;;;23.54
19568;BMP280;9930;49.240;8.548;2023-05-10T10:55:19;100128.59;;;23.61
19568;BMP280;9930;49.240;8.548;2023-05-10T10:57:50;100124.09;;;23.69
19568;BMP280;9930;49.240;8.548;2023-05-10T11:00:46;100141.16;;;23.84
19568;BMP280;9930;49.240;8.548;2023-05-10T11:03:13;100126.34;;;23.86
19568;BMP280;9930;49.240;8.548;2023-05-10T11:05:47;100141.66;;;24.01
19568;BMP280;9930;49.240;8.548;2023-05-10T11:08:18;100144.03;;;24.10
19568;BMP280;9930;49.240;8.548;2023-05-10T11:13:45;100142.16;;;24.17
19568;BMP280;9930;49.240;8.548;2023-05-10T11:16:22;100146.31;;;24.26
19568;BMP280;9930;49.240;8.548;2023-05-10T11:19:13;100124.63;;;24.23
19568;BMP280;9930;49.240;8.548;2023-05-10T11:24:31;100140.28;;;24.23
19568;BMP280;9930;49.240;8.548;2023-05-10T11:26:57;100142.97;;;24.19
19568;BMP280;9930;49.240;8.548;2023-05-10T11:29:22;100139.78;;;24.06
19568;BMP280;9930;49.240;8.548;2023-05-10T11:31:50;100152.91;;;24.02
19568;BMP280;9930;49.240;8.548;2023-05-10T11:34:30;100153.22;;;23.88
19568;BMP280;9930;49.240;8.548;2023-05-10T11:37:02;100159.63;;;23.72
19568;BMP280;9930;49.240;8.548;2023-05-10T11:39:31;100166.78;;;23.61
19568;BMP280;9930;49.240;8.548;2023-05-10T11:41:58;100176.72;;;23.39
19568;BMP280;9930;49.240;8.548;2023-05-10T11:44:30;100175.31;;;23.21
19568;BMP280;9930;49.240;8.548;2023-05-10T11:47:00;100170.59;;;22.93
19568;BMP280;9930;49.240;8.548;2023-05-10T11:49:28;100169.94;;;22.78
19568;BMP280;9930;49.240;8.548;2023-05-10T11:52:07;100172.78;;;22.62
19568;BMP280;9930;49.240;8.548;2023-05-10T11:54:36;100177.22;;;22.56
19568;BMP280;9930;49.240;8.548;2023-05-10T11:57:02;100184.31;;;22.46
19568;BMP280;9930;49.240;8.548;2023-05-10T11:59:28;100183.56;;;22.38
19568;BMP280;9930;49.240;8.548;2023-05-10T12:01:57;100185.34;;;22.33
19568;BMP280;9930;49.240;8.548;2023-05-10T12:04:23;100179.41;;;22.25
19568;BMP280;9930;49.240;8.548;2023-05-10T12:06:49;100185.34;;;22.33
19568;BMP280;9930;49.240;8.548;2023-05-10T12:09:17;100176.63;;;22.37
19568;BMP280;9930;49.240;8.548;2023-05-10T12:11:45;100186.94;;;22.43
19568;BMP280;9930;49.240;8.548;2023-05-10T12:14:13;100177.38;;;22.47
19568;BMP280;9930;49.240;8.548;2023-05-10T12:16:45;100178.03;;;22.59
19568;BMP280;9930;49.240;8.548;2023-05-10T12:19:18;100171.91;;;22.63
19568;BMP280;9930;49.240;8.548;2023-05-10T12:21:45;100185.53;;;22.81
19568;BMP280;9930;49.240;8.548;2023-05-10T12:24:14;100189.69;;;22.92
19568;BMP280;9930;49.240;8.548;2023-05-10T12:26:48;100183.50;;;23.00
19568;BMP280;9930;49.240;8.548;2023-05-10T12:29:18;100173.78;;;23.09
19568;BMP280;9930;49.240;8.548;2023-05-10T12:31:54;100178.78;;;23.21
19568;BMP280;9930;49.240;8.548;2023-05-10T12:34:34;100170.78;;;23.32
19568;BMP280;9930;49.240;8.548;2023-05-10T12:37:04;100183.53;;;23.46
19568;BMP280;9930;49.240;8.548;2023-05-10T12:39:44;100173.06;;;23.49
19568;BMP280;9930;49.240;8.548;2023-05-10T12:42:14;100192.75;;;23.65
19568;BMP280;9930;49.240;8.548;2023-05-10T12:44:43;100181.31;;;23.72
19568;BMP280;9930;49.240;8.548;2023-05-10T12:47:08;100183.81;;;23.78
19568;BMP280;9930;49.240;8.548;2023-05-10T12:49:34;100176.72;;;23.85
19568;BMP280;9930;49.240;8.548;2023-05-10T12:52:02;100173.19;;;23.87
19568;BMP280;9930;49.240;8.548;2023-05-10T12:54:30;100186.81;;;24.00
19568;BMP280;9930;49.240;8.548;2023-05-10T12:56:58;100177.22;;;24.02
19568;BMP280;9930;49.240;8.548;2023-05-10T12:59:26;100182.22;;;24.13
19568;BMP280;9930;49.240;8.548;2023-05-10T13:01:56;100165.66;;;24.15
19568;BMP280;9930;49.240;8.548;2023-05-10T13:04:22;100170.63;;;24.28
19568;BMP280;9930;49.240;8.548;2023-05-10T13:06:47;100166.31;;;24.25
19568;BMP280;9930;49.240;8.548;2023-05-10T13:09:13;100178.22;;;24.37
19568;BMP280;9930;49.240;8.548;2023-05-10T13:11:43;100175.56;;;24.40
19568;BMP280;9930;49.240;8.548;2023-05-10T13:14:09;100175.44;;;24.44
19568;BMP280;9930;49.240;8.548;2023-05-10T13:16:38;100155.63;;;24.37
19568;BMP280;9930;49.240;8.548;2023-05-10T13:19:10;100161.59;;;24.42
19568;BMP280;9930;49.240;8.548;2023-05-10T13:21:36;100165.78;;;24.49
19568;BMP280;9930;49.240;8.548;2023-05-10T13:24:05;100164.03;;;24.50
19568;BMP280;9930;49.240;8.548;2023-05-10T13:26:33;100167.59;;;24.46
19568;BMP280;9930;49.240;8.548;2023-05-10T13:29:02;100167.50;;;24.50
19568;BMP280;9930;49.240;8.548;2023-05-10T13:31:30;100169.16;;;24.53
19568;BMP280;9930;49.240;8.548;2023-05-10T13:33:56;100155.38;;;24.48
19568;BMP280;9930;49.240;8.548;2023-05-10T13:36:23;100168.28;;;24.54
19568;BMP280;9930;49.240;8.548;2023-05-10T13:38:49;100161.38;;;24.51
19568;BMP280;9930;49.240;8.548;2023-05-10T13:41:17;100163.06;;;24.54
19568;BMP280;9930;49.240;8.548;2023-05-10T13:43:43;100156.06;;;24.56
19568;BMP280;9930;49.240;8.548;2023-05-10T13:46:10;100152.53;;;24.59
19568;BMP280;9930;49.240;8.548;2023-05-10T13:48:37;100155.97;;;24.59
19568;BMP280;9930;49.240;8.548;2023-05-10T13:51:03;100161.84;;;24.69
19568;BMP280;9930;49.240;8.548;2023-05-10T13:53:34;100149.75;;;24.65
19568;BMP280;9930;49.240;8.548;2023-05-10T13:55:59;100147.13;;;24.66
19568;BMP280;9930;49.240;8.548;2023-05-10T13:58:25;100153.97;;;24.70
19568;BMP280;9930;49.240;8.548;2023-05-10T14:00:55;100152.97;;;24.76
19568;BMP280;9930;49.240;8.548;2023-05-10T14:03:24;100144.34;;;24.72
19568;BMP280;9930;49.240;8.548;2023-05-10T14:05:54;100141.69;;;24.75
19568;BMP280;9930;49.240;8.548;2023-05-10T14:08:19;100136.41;;;24.77
19568;BMP280;9930;49.240;8.548;2023-05-10T14:10:46;100144.09;;;24.83
19568;BMP280;9930;49.240;8.548;2023-05-10T14:13:14;100140.59;;;24.84
19568;BMP280;9930;49.240;8.548;2023-05-10T14:15:45;100139.69;;;24.85
19568;BMP280;9930;49.240;8.548;2023-05-10T14:18:11;100137.97;;;24.84
19568;BMP280;9930;49.240;8.548;2023-05-10T14:20:40;100135.44;;;24.81
19568;BMP280;9930;49.240;8.548;2023-05-10T14:23:10;100133.75;;;24.80
19568;BMP280;9930;49.240;8.548;2023-05-10T14:25:37;100123.34;;;24.78
19568;BMP280;9930;49.240;8.548;2023-05-10T14:28:03;100138.88;;;24.83
19568;BMP280;9930;49.240;8.548;2023-05-10T14:30:31;100129.25;;;24.85
19568;BMP280;9930;49.240;8.548;2023-05-10T14:32:56;100133.59;;;24.86
19568;BMP280;9930;49.240;8.548;2023-05-10T14:35:27;100140.50;;;24.87
19568;BMP280;9930;49.240;8.548;2023-05-10T14:37:56;100139.66;;;24.86
19568;BMP280;9930;49.240;8.548;2023-05-10T14:40:22;100134.44;;;24.86
19568;BMP280;9930;49.240;8.548;2023-05-10T14:42:50;100132.66;;;24.89
19568;BMP280;9930;49.240;8.548;2023-05-10T14:45:17;100122.28;;;24.85
19568;BMP280;9930;49.240;8.548;2023-05-10T14:47:43;100134.28;;;24.93